Time;durP1;ratioP1;P1;durP2;ratioP2;P2;SDS_P1;SDS_P2;PMS_P1;PMS_P2;Temp;Humidity;BMP_temperature;BMP_pressure;BME280_temperature;BME280_humidity;BME280_pressure;Samples;Min_cycle;Max_cycle;Signal;HPM_P1;HPM_P2
2022/06/16 00:02:19;;;;;;;7.20;3.30;;;;;;;17.40;54.78;101803.19;5052123;28;20078;-77
2022/06/16 00:04:46;;;;;;;6.17;3.30;;;;;;;17.27;55.21;101800.06;5052310;28;20033;-77
2022/06/16 00:07:12;;;;;;;;;;;;;;;17.23;55.26;101791.44;5052974;28;20031;-77
2022/06/16 00:09:37;;;;;;;6.60;3.28;;;;;;;17.22;54.54;101788.88;5051601;28;19917;-77
2022/06/16 00:12:02;;;;;;;3.83;2.70;;;;;;;17.17;55.31;101783.72;5052736;28;20051;-77
2022/06/16 00:14:29;;;;;;;6.57;3.37;;;;;;;17.17;54.87;101796.00;5060028;28;20021;-77
2022/06/16 00:16:55;;;;;;;8.40;3.78;;;;;;;17.06;55.99;101791.91;5069255;28;20031;-77
2022/06/16 00:19:20;;;;;;;4.23;2.80;;;;;;;17.08;55.02;101792.72;5072254;28;20017;-77
2022/06/16 00:21:45;;;;;;;5.60;3.10;;;;;;;17.05;55.45;101791.97;5072202;28;20036;-77
2022/06/16 00:24:11;;;;;;;7.27;3.53;;;;;;;16.99;55.83;101795.63;5072254;28;20021;-77
2022/06/16 00:26:36;;;;;;;5.33;3.50;;;;;;;16.94;55.94;101793.09;5073003;28;20062;-76
2022/06/16 00:29:02;;;;;;;5.77;3.20;;;;;;;16.93;55.48;101796.59;5072365;28;20112;-77
2022/06/16 00:31:27;;;;;;;7.73;3.67;;;;;;;16.89;55.82;101801.97;5071443;28;20095;-76
2022/06/16 00:33:53;;;;;;;5.57;3.20;;;;;;;16.87;56.04;101806.38;5072068;28;20028;-76
2022/06/16 00:36:18;;;;;;;4.27;2.97;;;;;;;16.87;55.47;101798.53;5072609;28;20021;-77
2022/06/16 00:38:43;;;;;;;3.10;2.77;;;;;;;16.86;55.06;101802.03;5071523;28;20024;-77
2022/06/16 00:41:13;;;;;;;5.10;3.10;;;;;;;16.81;55.79;101807.41;5073070;28;20039;-77
2022/06/16 00:43:39;;;;;;;6.60;2.95;;;;;;;16.81;55.68;101808.25;5059179;28;20380;-76
2022/06/16 00:46:17;;;;;;;3.97;3.00;;;;;;;16.80;55.55;101800.44;5056234;28;20385;-77
2022/06/16 00:48:48;;;;;;;5.80;3.20;;;;;;;16.74;55.66;101809.34;5055979;28;20362;-77
2022/06/16 00:51:33;;;;;;;7.63;3.70;;;;;;;16.66;55.37;101801.66;5055587;28;20469;-77
2022/06/16 00:54:04;;;;;;;4.10;2.88;;;;;;;16.68;55.20;101806.84;5055493;28;20048;-77
2022/06/16 00:56:30;;;;;;;5.03;2.85;;;;;;;16.68;55.50;101806.84;5056015;28;20048;-77
2022/06/16 00:58:58;;;;;;;3.33;2.50;;;;;;;16.70;55.54;101819.94;5055042;28;20553;-77
2022/06/16 01:01:25;;;;;;;2.50;2.30;;;;;;;16.72;55.08;101818.16;5056206;28;20012;-76
2022/06/16 01:06:43;;;;;;;2.25;2.05;;;;;;;16.71;55.73;101803.31;5032995;28;19919;-77
2022/06/16 01:09:15;;;;;;;2.90;2.50;;;;;;;16.68;55.08;101812.09;5075091;28;20020;-77
2022/06/16 01:15:02;;;;;;;4.05;2.13;;;;;;;16.63;55.46;101814.00;5055526;28;20083;-77
2022/06/16 01:17:46;;;;;;;2.72;2.10;;;;;;;16.63;54.99;101817.44;5055639;28;20048;-77
2022/06/16 01:20:25;;;;;;;2.13;1.92;;;;;;;16.65;55.12;101826.16;5055013;28;20102;-77
2022/06/16 01:23:32;;;;;;;1.70;1.60;;;;;;;16.66;55.23;101833.09;5055193;28;20036;-77
2022/06/16 01:26:26;;;;;;;1.73;1.63;;;;;;;16.65;56.05;101830.53;4973400;28;20049;-77
2022/06/16 01:29:08;;;;;;;1.38;1.33;;;;;;;16.62;55.71;101836.69;5054909;28;20120;-77
2022/06/16 01:31:48;;;;;;;1.40;1.30;;;;;;;16.61;55.62;101836.75;5055682;28;20025;-77
2022/06/16 01:34:35;;;;;;;1.30;1.20;;;;;;;16.59;55.31;101847.28;5055102;28;20037;-77
2022/06/16 01:37:16;;;;;;;1.60;1.50;;;;;;;16.55;56.26;101842.16;5055286;28;20443;-77
2022/06/16 01:39:49;;;;;;;1.70;1.58;;;;;;;16.52;56.08;101843.06;5070917;28;20109;-77
2022/06/16 01:42:28;;;;;;;1.40;1.30;;;;;;;16.46;56.35;101840.59;5075535;28;20051;-77
2022/06/16 01:45:02;;;;;;;1.40;1.30;;;;;;;16.41;55.88;101843.34;5074542;28;20078;-77
2022/06/16 01:47:30;;;;;;;1.10;1.10;;;;;;;16.40;55.62;101838.13;5074201;28;20029;-77
2022/06/16 01:50:03;;;;;;;1.40;1.30;;;;;;;16.35;56.02;101838.22;5073116;28;20098;-77
2022/06/16 01:52:36;;;;;;;1.30;1.20;;;;;;;16.28;56.12;101841.91;5073950;28;20124;-77
2022/06/16 01:55:06;;;;;;;1.70;1.60;;;;;;;16.20;56.54;101842.06;5073801;28;20101;-77
2022/06/16 01:57:44;;;;;;;1.50;1.40;;;;;;;16.14;57.82;101850.09;5074457;28;20424;-77
2022/06/16 02:00:15;;;;;;;1.60;1.50;;;;;;;16.09;56.49;101846.69;5074632;28;20020;-77
2022/06/16 02:02:42;;;;;;;1.50;1.40;;;;;;;16.04;56.53;101846.78;5073924;28;20029;-77
2022/06/16 02:05:15;;;;;;;1.40;1.30;;;;;;;16.00;56.41;101852.97;5074665;28;20468;-77
2022/06/16 02:07:50;;;;;;;1.70;1.60;;;;;;;15.95;56.33;101855.72;5057934;28;20032;-77
2022/06/16 02:10:21;;;;;;;1.42;1.40;;;;;;;15.91;57.03;101851.44;5053861;28;20025;-77
2022/06/16 02:12:56;;;;;;;1.40;1.30;;;;;;;15.86;56.71;101851.56;5053937;28;20415;-77
2022/06/16 02:15:33;;;;;;;1.70;1.60;;;;;;;15.81;56.48;101837.66;5053906;28;20118;-76
2022/06/16 02:18:00;;;;;;;1.30;1.20;;;;;;;15.74;56.86;101831.69;5054216;28;20021;-77
2022/06/16 02:20:30;;;;;;;;;;;;;;;15.66;57.68;101832.72;5054854;28;20036;-77
2022/06/16 02:22:57;;;;;;;1.80;1.70;;;;;;;15.61;57.30;101830.22;5053335;28;20179;-77
2022/06/16 02:25:23;;;;;;;1.70;1.60;;;;;;;15.55;57.37;101836.44;5054210;28;20021;-77
2022/06/16 02:27:48;;;;;;;1.60;1.50;;;;;;;15.54;57.16;101846.94;5054073;28;20496;-77
2022/06/16 02:30:14;;;;;;;1.40;1.33;;;;;;;15.52;57.24;101856.56;5069232;28;20484;-77
2022/06/16 02:33:08;;;;;;;1.60;1.50;;;;;;;15.49;57.31;101870.56;5073705;28;20060;-77
2022/06/16 02:35:39;;;;;;;1.60;1.50;;;;;;;15.44;57.07;101873.28;5058989;28;20056;-77
2022/06/16 02:38:12;;;;;;;1.58;1.48;;;;;;;15.42;57.11;101872.44;5053721;28;20033;-77
2022/06/16 02:40:44;;;;;;;1.40;1.30;;;;;;;15.40;57.51;101883.84;5054238;28;20033;-77
2022/06/16 02:43:36;;;;;;;1.80;1.70;;;;;;;15.33;57.33;101882.22;5053264;28;20025;-77
2022/06/16 02:46:02;;;;;;;1.80;1.70;;;;;;;15.31;57.77;101886.63;5053610;28;20123;-77
2022/06/16 02:48:51;;;;;;;1.60;1.50;;;;;;;15.25;57.46;101888.47;5053912;28;20104;-77
2022/06/16 02:51:42;;;;;;;1.80;1.70;;;;;;;15.21;58.79;101896.38;5052969;28;20116;-77
2022/06/16 02:54:22;;;;;;;1.80;1.70;;;;;;;15.14;57.91;101893.88;5053456;28;20123;-77
2022/06/16 02:56:51;;;;;;;1.65;1.55;;;;;;;15.12;57.80;101900.91;5054107;28;20454;-77
2022/06/16 02:59:22;;;;;;;1.70;1.60;;;;;;;15.08;58.21;101898.38;5052839;28;20075;-77
2022/06/16 03:01:49;;;;;;;1.73;1.60;;;;;;;15.03;58.01;101906.25;5052989;28;20029;-77
2022/06/16 03:04:17;;;;;;;1.55;1.45;;;;;;;14.95;58.27;101895.06;5072585;28;20126;-76
2022/06/16 03:06:44;;;;;;;1.80;1.70;;;;;;;14.94;58.08;101903.81;5073052;28;20056;-77
2022/06/16 03:09:11;;;;;;;1.70;1.60;;;;;;;14.89;58.22;101897.81;5055077;28;20037;-77
2022/06/16 03:11:37;;;;;;;2.28;1.70;;;;;;;14.87;58.49;101889.97;5052379;28;20043;-77
2022/06/16 03:14:03;;;;;;;1.77;1.67;;;;;;;14.84;58.91;101895.28;5053444;28;20029;-77
2022/06/16 03:16:29;;;;;;;1.92;1.75;;;;;;;14.81;58.96;101895.31;5053436;28;20029;-77
2022/06/16 03:18:54;;;;;;;1.70;1.60;;;;;;;14.76;58.65;101898.00;5051948;28;20086;-77
2022/06/16 03:21:20;;;;;;;1.70;1.60;;;;;;;14.76;58.62;101897.13;5053133;28;20025;-77
2022/06/16 03:23:45;;;;;;;1.90;1.80;;;;;;;14.75;58.69;101898.03;5053049;28;20366;-77
2022/06/16 03:26:11;;;;;;;1.90;1.80;;;;;;;14.72;58.75;101900.69;5052160;28;20358;-77
2022/06/16 03:28:37;;;;;;;1.90;1.80;;;;;;;14.67;59.13;101896.38;5053043;28;20079;-77
2022/06/16 03:31:03;;;;;;;1.83;1.73;;;;;;;14.63;59.19;101886.88;5062089;28;20090;-76
2022/06/16 03:33:28;;;;;;;1.88;1.77;;;;;;;14.59;59.12;101890.41;5072168;28;20025;-77
2022/06/16 03:35:55;;;;;;;1.80;1.70;;;;;;;14.56;58.90;101889.59;5072575;28;20051;-77
2022/06/16 03:40:55;;;;;;;1.90;1.80;;;;;;;14.49;59.54;101902.72;5072020;28;20028;-77
2022/06/16 03:43:23;;;;;;;1.80;1.70;;;;;;;14.46;59.10;101914.97;5073263;28;20531;-77
2022/06/16 03:45:49;;;;;;;1.98;1.88;;;;;;;14.44;60.17;101915.00;5072585;28;20032;-77
2022/06/16 03:48:14;;;;;;;1.73;1.63;;;;;;;14.43;60.49;101933.28;5072076;28;20024;-77
2022/06/16 03:50:42;;;;;;;1.87;1.50;;;;;;;14.39;60.74;101929.00;5072418;28;20522;-77
2022/06/16 03:53:08;;;;;;;2.10;1.88;;;;;;;14.34;60.89;101932.53;5072597;28;20048;-77
2022/06/16 03:55:34;;;;;;;2.08;1.70;;;;;;;14.31;60.48;101937.78;5067361;28;20164;-76
2022/06/16 03:57:59;;;;;;;2.17;2.03;;;;;;;14.28;60.50;101931.75;5051353;28;20126;-76
2022/06/16 04:00:25;;;;;;;1.97;1.57;;;;;;;14.27;60.44;101936.13;5052347;28;20477;-76
2022/06/16 04:05:36;;;;;;;2.35;1.75;;;;;;;14.24;60.37;101946.59;5053097;28;20035;-76
2022/06/16 04:08:01;;;;;;;1.70;1.60;;;;;;;14.25;61.01;101950.06;5051472;28;20079;-76
2022/06/16 04:10:27;;;;;;;1.60;1.50;;;;;;;14.24;60.02;101957.03;5052725;28;20029;-76
2022/06/16 04:12:52;;;;;;;1.50;1.40;;;;;;;14.24;59.90;101949.22;5052298;28;20044;-76
2022/06/16 04:15:17;;;;;;;1.60;1.50;;;;;;;14.26;59.90;101957.91;5051823;28;20385;-77
2022/06/16 04:17:43;;;;;;;1.80;1.67;;;;;;;14.24;60.25;101958.81;5055802;28;20033;-76
2022/06/16 04:20:14;;;;;;;1.77;1.63;;;;;;;14.23;60.09;101955.31;5057089;28;20033;-76
2022/06/16 04:22:41;;;;;;;1.48;1.38;;;;;;;14.25;60.28;101953.56;5075215;28;20396;-76
2022/06/16 04:25:12;;;;;;;2.80;2.15;;;;;;;14.21;61.27;101951.84;5064465;28;20053;-76
2022/06/16 04:27:38;;;;;;;1.90;1.80;;;;;;;14.21;60.82;101947.50;5055734;28;20036;-76
2022/06/16 04:30:04;;;;;;;2.15;2.00;;;;;;;14.19;61.38;101957.09;5056906;28;20056;-76
2022/06/16 04:32:29;;;;;;;2.47;2.13;;;;;;;14.18;61.00;101960.59;5057042;28;20083;-77
2022/06/16 04:34:55;;;;;;;2.73;2.17;;;;;;;14.18;62.04;101962.38;5056389;28;20029;-76
2022/06/16 04:37:20;;;;;;;2.27;2.07;;;;;;;14.16;60.80;101964.13;5056163;28;20064;-76
2022/06/16 04:39:45;;;;;;;2.10;1.90;;;;;;;14.17;62.05;101969.31;5056998;28;20111;-75
2022/06/16 04:42:11;;;;;;;1.90;1.70;;;;;;;14.18;61.67;101971.03;5075546;28;20028;-76
2022/06/16 04:44:38;;;;;;;2.40;1.90;;;;;;;14.20;60.48;101977.13;5075597;28;20111;-76
2022/06/16 04:47:06;;;;;;;1.63;1.52;;;;;;;14.24;60.51;101980.53;5076757;28;20024;-76
2022/06/16 04:49:31;;;;;;;2.15;1.80;;;;;;;14.26;60.88;101981.41;5076160;28;20024;-76
2022/06/16 04:51:57;;;;;;;2.00;1.90;;;;;;;14.27;61.13;101988.34;5072972;28;20047;-76
2022/06/16 04:54:22;;;;;;;3.03;1.87;;;;;;;14.30;60.41;101987.44;5056041;28;20075;-76
2022/06/16 04:56:47;;;;;;;2.50;1.90;;;;;;;14.34;60.11;101983.91;5055340;28;20029;-76
2022/06/16 04:59:13;;;;;;;2.20;2.00;;;;;;;14.38;60.66;101990.81;5056246;28;20029;-76
2022/06/16 05:01:39;;;;;;;2.30;2.10;;;;;;;14.38;60.98;101996.03;5055747;28;20052;-76
2022/06/16 05:04:04;;;;;;;1.88;1.77;;;;;;;14.42;61.86;101994.25;5055276;28;20028;-76
2022/06/16 05:06:30;;;;;;;1.90;1.70;;;;;;;14.43;61.39;101994.25;5055787;28;20105;-76
2022/06/16 05:08:55;;;;;;;2.87;2.50;;;;;;;14.42;61.84;102000.34;5071406;28;20657;-76
2022/06/16 05:11:24;;;;;;;2.50;2.30;;;;;;;14.42;61.45;101997.72;5074512;28;20024;-76
2022/06/16 05:13:49;;;;;;;1.95;1.85;;;;;;;14.45;60.70;102012.50;5074568;28;20388;-76
2022/06/16 05:16:14;;;;;;;1.87;1.77;;;;;;;14.48;60.55;102015.91;5075812;28;20029;-76
2022/06/16 05:18:40;;;;;;;1.50;1.40;;;;;;;14.52;60.63;102019.38;5073452;28;20024;-76
2022/06/16 05:21:08;;;;;;;1.60;1.50;;;;;;;14.55;61.14;102026.31;5064560;28;20171;-76
2022/06/16 05:23:33;;;;;;;1.88;1.45;;;;;;;14.59;60.60;102026.25;5055596;28;20029;-76
2022/06/16 05:25:59;;;;;;;1.80;1.70;;;;;;;14.62;60.25;102028.81;5054638;28;20381;-76
2022/06/16 05:28:24;;;;;;;1.40;1.40;;;;;;;14.66;60.68;102032.25;5053970;28;20444;-76
2022/06/16 05:30:49;;;;;;;1.50;1.40;;;;;;;14.70;60.04;102030.50;5055426;28;20512;-76
2022/06/16 05:33:15;;;;;;;1.60;1.50;;;;;;;14.74;59.76;102037.41;5054489;28;20029;-76
2022/06/16 05:35:40;;;;;;;1.70;1.60;;;;;;;14.78;61.27;102037.34;5064780;28;20024;-76
2022/06/16 05:38:05;;;;;;;1.70;1.60;;;;;;;14.80;60.08;102039.94;5054925;28;20040;-76
2022/06/16 05:40:31;;;;;;;2.30;2.10;;;;;;;14.83;60.06;102045.97;5054259;28;20033;-76
2022/06/16 05:42:56;;;;;;;4.33;2.73;;;;;;;14.87;59.46;102040.72;5054602;28;20927;-76
2022/06/16 05:45:22;;;;;;;5.60;3.30;;;;;;;14.90;58.77;102046.75;5055742;28;20001;-76
2022/06/16 05:47:48;;;;;;;4.40;2.90;;;;;;;14.96;59.16;102045.81;5062016;28;20021;-76
2022/06/16 05:50:16;;;;;;;2.67;2.08;;;;;;;15.01;59.56;102054.47;5074992;28;20082;-76
2022/06/16 05:52:42;;;;;;;2.08;1.90;;;;;;;15.06;59.29;102054.38;5074272;28;20487;-76
2022/06/16 05:55:11;;;;;;;2.08;1.98;;;;;;;15.10;59.18;102056.06;5074358;28;20119;-77
2022/06/16 05:57:36;;;;;;;5.15;2.95;;;;;;;15.14;57.69;102055.13;5074325;28;20033;-76
2022/06/16 06:00:03;;;;;;;5.97;3.30;;;;;;;15.16;56.12;102050.75;5074746;28;20492;-76
2022/06/16 06:02:29;;;;;;;7.18;4.00;;;;;;;15.39;55.35;102050.38;5074941;28;20058;-76
2022/06/16 06:04:54;;;;;;;8.13;4.10;;;;;;;15.86;55.24;102058.34;5074345;28;20021;-76
2022/06/16 06:07:19;;;;;;;5.27;3.17;;;;;;;17.26;52.15;102063.31;5074393;28;20051;-77
2022/06/16 06:18:21;;;;;;;2.58;2.20;;;;;;;22.94;40.39;102067.84;5069343;28;20028;-76
2022/06/16 06:20:47;;;;;;;3.83;2.63;;;;;;;21.88;40.53;102064.69;5073811;28;20029;-78
2022/06/16 06:23:13;;;;;;;3.20;2.28;;;;;;;21.25;39.35;102069.97;5073682;28;20039;-77
2022/06/16 06:25:39;;;;;;;2.85;2.33;;;;;;;21.04;43.16;102074.31;5073911;28;20468;-77
2022/06/16 06:28:05;;;;;;;3.78;2.30;;;;;;;21.05;43.22;102063.72;5074094;28;20032;-77
2022/06/16 06:30:33;;;;;;;2.95;2.13;;;;;;;21.09;43.13;102067.94;5073577;28;20017;-76
2022/06/16 06:33:00;;;;;;;2.72;1.88;;;;;;;21.14;42.64;102067.75;5073467;28;20036;-77
2022/06/16 06:35:25;;;;;;;;;;;;;;;21.26;42.71;102069.88;5073632;28;20082;-76
2022/06/16 06:37:51;;;;;;;2.45;1.90;;;;;;;21.33;40.23;102073.16;5073763;28;20307;-77
2022/06/16 06:40:31;;;;;;;2.00;1.90;;;;;;;21.27;41.31;102081.31;5073649;28;20103;-77
2022/06/16 06:42:57;;;;;;;3.60;2.10;;;;;;;21.13;38.38;102087.16;5056435;28;20040;-77
2022/06/16 06:45:23;;;;;;;4.30;2.10;;;;;;;20.83;39.85;102076.91;5053750;28;20019;-77
2022/06/16 06:47:52;;;;;;;3.08;2.00;;;;;;;20.72;40.26;102074.63;5053505;28;20056;-76
2022/06/16 06:50:27;;;;;;;3.30;2.00;;;;;;;20.62;40.68;102087.31;5053117;28;20033;-77
2022/06/16 06:52:53;;;;;;;3.35;2.10;;;;;;;20.57;41.88;102083.16;5053004;28;20056;-77
2022/06/16 06:55:19;;;;;;;1.80;1.70;;;;;;;20.65;41.02;102087.22;5053464;28;20063;-77
2022/06/16 06:57:46;;;;;;;2.47;1.92;;;;;;;20.70;39.54;102087.03;5052584;28;20436;-77
2022/06/16 07:00:15;;;;;;;2.00;1.50;;;;;;;20.65;42.31;102087.22;5053244;28;20035;-77
2022/06/16 07:02:44;;;;;;;3.13;2.10;;;;;;;20.57;38.46;102096.34;5052992;28;20028;-77
2022/06/16 07:05:10;;;;;;;3.25;2.17;;;;;;;20.26;41.18;102094.84;5052806;28;20025;-76
2022/06/16 07:07:36;;;;;;;3.00;2.08;;;;;;;20.28;40.99;102092.97;5067735;28;20081;-77
2022/06/16 07:10:04;;;;;;;4.00;2.03;;;;;;;20.31;41.63;102098.16;5064584;28;20025;-77
2022/06/16 07:12:30;;;;;;;2.97;1.80;;;;;;;20.41;42.89;102096.88;5052184;28;20028;-77
2022/06/16 07:14:55;;;;;;;1.60;1.50;;;;;;;20.67;40.63;102100.34;5052949;28;20040;-77
2022/06/16 07:17:22;;;;;;;2.47;1.83;;;;;;;20.78;41.76;102107.84;5053280;28;20029;-77
2022/06/16 07:19:48;;;;;;;2.17;1.65;;;;;;;20.99;42.05;102119.38;5052138;28;20029;-76
2022/06/16 07:22:13;;;;;;;3.33;1.80;;;;;;;21.02;42.29;102121.91;5053064;28;20405;-78
2022/06/16 07:24:39;;;;;;;2.13;1.90;;;;;;;21.13;42.35;102118.81;5051678;28;20095;-76
2022/06/16 07:27:05;;;;;;;2.03;1.70;;;;;;;21.14;42.60;102124.06;5052452;28;20470;-76
2022/06/16 07:29:36;;;;;;;1.70;1.60;;;;;;;21.27;42.58;102126.22;5053005;28;20025;-76
2022/06/16 07:32:03;;;;;;;2.85;2.10;;;;;;;21.33;40.67;102136.50;5052359;28;20452;-76
2022/06/16 07:34:29;;;;;;;1.95;1.83;;;;;;;21.29;41.90;102126.97;5052885;28;20112;-76
2022/06/16 07:36:54;;;;;;;1.83;1.70;;;;;;;21.42;42.09;102133.50;5052486;28;20099;-76
2022/06/16 07:39:20;;;;;;;2.67;1.90;;;;;;;21.40;41.05;102137.97;5070858;28;20052;-77
2022/06/16 07:41:45;;;;;;;2.90;1.70;;;;;;;21.48;42.35;102148.22;5072472;28;20024;-76
2022/06/16 07:44:13;;;;;;;1.40;1.30;;;;;;;21.61;41.97;102156.56;5073011;28;20017;-76
2022/06/16 07:46:42;;;;;;;1.52;1.42;;;;;;;21.79;41.51;102164.63;5071616;28;20474;-76
2022/06/16 07:49:11;;;;;;;2.03;1.50;;;;;;;21.78;40.88;102166.44;5072933;28;20034;-76
2022/06/16 07:51:37;;;;;;;1.40;1.30;;;;;;;21.78;41.64;102161.16;5071741;28;20032;-76
2022/06/16 07:54:02;;;;;;;1.70;1.52;;;;;;;21.82;41.29;102159.22;5071700;28;20167;-76
2022/06/16 07:56:28;;;;;;;3.43;2.00;;;;;;;21.71;40.28;102151.75;5072694;28;20044;-76
2022/06/16 07:58:53;;;;;;;3.20;2.10;;;;;;;21.42;38.97;102169.63;5072669;28;20073;-76
2022/06/16 08:01:19;;;;;;;1.73;1.60;;;;;;;21.46;41.02;102165.91;5070937;28;20043;-77
2022/06/16 08:03:44;;;;;;;2.67;1.60;;;;;;;21.57;39.08;102176.91;5052495;28;20025;-76
2022/06/16 08:06:15;;;;;;;4.40;1.90;;;;;;;21.52;40.77;102178.88;5061635;28;20021;-76
2022/06/16 08:08:42;;;;;;;1.90;1.63;;;;;;;21.60;41.01;102176.81;5071609;28;20033;-77
2022/06/16 08:12:03;;;;;;;1.90;1.60;;;;;;;21.63;40.95;102175.81;5072556;28;20076;-76
2022/06/16 08:13:54;;;;;;;3.60;2.20;;;;;;;21.66;38.25;102180.16;5070869;28;20036;-76
2022/06/16 08:16:19;;;;;;;2.17;1.80;;;;;;;21.70;41.53;102187.88;5072565;28;20021;-76
2022/06/16 08:18:44;;;;;;;1.40;1.30;;;;;;;21.88;41.99;102180.97;5072520;28;20111;-77
2022/06/16 08:21:10;;;;;;;3.67;2.00;;;;;;;21.95;39.65;102184.22;5071710;28;20021;-77
2022/06/16 08:23:35;;;;;;;1.63;1.53;;;;;;;21.98;40.74;102184.06;5072386;28;20020;-76
2022/06/16 08:26:02;;;;;;;1.30;1.20;;;;;;;22.11;41.06;102184.44;5072744;28;20043;-77
2022/06/16 08:28:27;;;;;;;1.27;1.10;;;;;;;22.25;39.90;102177.66;5071979;28;20032;-76
2022/06/16 08:30:56;;;;;;;2.40;1.40;;;;;;;22.28;37.89;102173.13;5063090;28;20017;-77
2022/06/16 08:33:21;;;;;;;3.47;1.90;;;;;;;22.23;39.45;102169.81;5053839;28;20029;-77
2022/06/16 08:35:49;;;;;;;2.93;1.80;;;;;;;22.21;39.04;102169.00;5071005;28;20038;-77
2022/06/16 08:38:14;;;;;;;2.10;1.80;;;;;;;22.20;39.85;102169.94;5072161;28;20104;-76
2022/06/16 08:40:47;;;;;;;1.43;1.33;;;;;;;22.34;40.23;102156.97;5072122;28;20033;-76
2022/06/16 08:43:33;;;;;;;3.17;2.00;;;;;;;22.25;36.95;102152.09;5071670;28;20029;-77
2022/06/16 08:46:05;;;;;;;1.90;1.80;;;;;;;22.22;38.47;102154.88;5072165;28;20028;-77
2022/06/16 08:48:45;;;;;;;3.55;2.00;;;;;;;22.15;37.54;102151.63;5072115;28;20103;-77
2022/06/16 08:51:35;;;;;;;2.50;1.60;;;;;;;22.27;41.34;102158.19;5070523;28;20491;-77
2022/06/16 08:54:14;;;;;;;2.50;1.80;;;;;;;22.45;38.70;102160.94;5071269;28;20048;-76
2022/06/16 08:57:07;;;;;;;2.63;1.58;;;;;;;22.62;39.62;102176.06;5070903;28;20025;-78
2022/06/16 08:59:52;;;;;;;2.15;1.90;;;;;;;22.70;38.65;102184.50;5071827;28;20029;-77
2022/06/16 09:02:29;;;;;;;2.00;1.75;;;;;;;22.80;37.47;102191.09;5063283;28;20548;-76
2022/06/16 09:05:05;;;;;;;2.65;1.83;;;;;;;22.76;38.28;102197.47;5054955;28;20120;-77
2022/06/16 09:07:46;;;;;;;1.83;1.73;;;;;;;22.81;37.85;102203.41;5055550;28;20027;-76
2022/06/16 09:10:30;;;;;;;1.48;1.38;;;;;;;22.95;38.70;102199.25;5065446;28;20040;-77
2022/06/16 09:13:11;;;;;;;1.60;1.50;;;;;;;22.97;38.34;102194.75;5074845;28;20032;-77
2022/06/16 09:16:01;;;;;;;1.92;1.48;;;;;;;23.01;37.13;102209.59;5073707;28;20040;-77
2022/06/16 09:18:48;;;;;;;1.70;1.60;;;;;;;23.15;38.85;102203.63;5074691;28;20039;-76
2022/06/16 09:21:25;;;;;;;1.40;1.25;;;;;;;23.32;38.85;102205.53;5076013;28;20024;-77
2022/06/16 09:24:19;;;;;;;2.00;1.77;;;;;;;23.36;38.19;102200.94;5075450;28;20430;-77
2022/06/16 09:26:55;;;;;;;1.90;1.73;;;;;;;23.44;37.58;102209.34;5056072;28;20108;-77
2022/06/16 09:29:31;;;;;;;3.20;1.97;;;;;;;23.48;37.06;102213.59;5055957;28;20384;-77
2022/06/16 09:32:03;;;;;;;1.80;1.70;;;;;;;23.51;38.76;102213.44;5032233;28;20279;-77
2022/06/16 09:34:48;;;;;;;2.40;1.80;;;;;;;23.70;37.98;102207.22;5034407;28;20493;-77
2022/06/16 09:37:31;;;;;;;2.30;1.40;;;;;;;23.83;37.98;102208.34;5034843;28;20108;-77
2022/06/16 09:40:27;;;;;;;2.67;1.77;;;;;;;23.92;36.45;102212.34;5033115;28;20291;-77
2022/06/16 09:43:02;;;;;;;3.15;2.20;;;;;;;23.84;37.53;102206.53;5033446;28;20033;-77
2022/06/16 09:45:30;;;;;;;2.45;1.48;;;;;;;23.97;39.01;102206.84;5034515;28;20057;-77
2022/06/16 09:48:13;;;;;;;2.20;2.00;;;;;;;24.14;37.05;102209.47;5034854;28;20021;-77
2022/06/16 09:50:54;;;;;;;2.28;1.90;;;;;;;24.19;37.38;102210.09;5054834;28;20115;-77
2022/06/16 09:53:32;;;;;;;2.03;1.80;;;;;;;24.25;37.58;102208.06;5053936;28;20063;-77
2022/06/16 09:56:03;;;;;;;1.95;1.80;;;;;;;24.29;37.52;102215.78;5054555;28;20500;-77
2022/06/16 09:58:38;;;;;;;2.75;1.88;;;;;;;24.35;37.09;102215.47;5054777;28;20033;-77
2022/06/16 10:01:08;;;;;;;3.63;2.05;;;;;;;24.29;38.02;102207.81;5055067;28;20040;-77
2022/06/16 10:03:39;;;;;;;3.55;2.00;;;;;;;24.26;37.77;102204.47;5054655;28;20029;-77
2022/06/16 10:06:39;;;;;;;2.10;1.90;;;;;;;24.38;37.90;102203.81;5054850;28;20096;-77
2022/06/16 10:09:16;;;;;;;1.70;1.60;;;;;;;24.57;37.41;102210.81;5054412;28;20028;-77
2022/06/16 10:11:57;;;;;;;1.70;1.60;;;;;;;24.69;37.25;102210.19;5054606;28;20028;-77
2022/06/16 10:14:37;;;;;;;1.85;1.75;;;;;;;24.80;37.65;102209.63;5059325;28;20107;-78
2022/06/16 10:17:06;;;;;;;3.90;2.42;;;;;;;24.70;36.71;102206.59;5034350;28;20032;-77
2022/06/16 10:19:34;;;;;;;3.92;2.22;;;;;;;24.61;37.74;102201.75;5034527;28;20095;-77
2022/06/16 10:22:01;;;;;;;6.38;2.63;;;;;;;24.55;35.92;102194.09;5033333;28;20032;-77
2022/06/16 10:24:35;;;;;;;2.80;2.10;;;;;;;24.50;36.65;102207.63;5034325;28;20104;-77
2022/06/16 10:27:00;;;;;;;4.78;2.50;;;;;;;24.54;36.38;102197.72;5034312;28;20482;-77
2022/06/16 10:29:28;;;;;;;4.03;2.45;;;;;;;24.51;35.72;102210.22;5034251;28;20091;-77
2022/06/16 10:31:56;;;;;;;2.10;1.90;;;;;;;24.67;37.75;102207.59;5033719;28;20537;-78
2022/06/16 10:34:38;;;;;;;1.98;1.73;;;;;;;24.80;36.91;102217.59;5032446;28;20033;-76
2022/06/16 10:37:22;;;;;;;2.25;2.05;;;;;;;25.06;35.31;102225.91;5033913;28;20029;-77
2022/06/16 10:40:26;;;;;;;1.60;1.50;;;;;;;25.31;37.56;102214.78;5038867;28;20486;-76
2022/06/16 10:43:00;;;;;;;1.95;1.80;;;;;;;25.55;36.16;102222.34;5031973;28;20473;-76
2022/06/16 10:45:29;;;;;;;2.08;1.40;;;;;;;25.70;36.97;102224.09;5074127;28;20027;-77
2022/06/16 10:48:06;;;;;;;1.60;1.27;;;;;;;25.92;37.24;102225.50;5072768;28;20093;-76
2022/06/16 10:50:36;;;;;;;3.80;2.05;;;;;;;25.90;35.17;102220.28;5073220;28;20111;-78
2022/06/16 10:53:05;;;;;;;2.53;2.00;;;;;;;25.88;35.74;102235.47;5073291;28;20052;-77
2022/06/16 10:55:48;;;;;;;1.73;1.63;;;;;;;26.02;36.09;102233.81;5073136;28;20035;-77
2022/06/16 10:58:26;;;;;;;1.58;1.48;;;;;;;26.15;35.91;102224.19;5073417;28;20488;-77
2022/06/16 11:01:16;;;;;;;5.70;2.45;;;;;;;25.70;33.65;102229.41;5073664;28;20024;-77
2022/06/16 11:03:50;;;;;;;3.60;2.00;;;;;;;25.71;35.86;102220.50;5072028;28;20025;-77
2022/06/16 11:06:21;;;;;;;5.05;2.30;;;;;;;25.78;34.78;102213.03;5073701;28;20031;-77
2022/06/16 11:08:52;;;;;;;3.25;2.00;;;;;;;25.85;35.37;102216.19;5055074;28;20044;-76
2022/06/16 11:11:40;;;;;;;3.97;2.30;;;;;;;25.86;34.79;102217.91;5064344;28;20358;-77
2022/06/16 11:14:16;;;;;;;4.07;2.17;;;;;;;25.95;33.84;102213.84;5072951;28;20037;-77
2022/06/16 11:16:45;;;;;;;;;;;;;;;26.01;36.16;102213.47;5072650;28;20078;-77
2022/06/16 11:19:17;;;;;;;2.45;1.90;;;;;;;26.25;33.70;102213.00;5073647;28;19913;-77
2022/06/16 11:21:49;;;;;;;1.90;1.52;;;;;;;26.44;35.49;102199.41;5071516;28;20032;-77
2022/06/16 11:24:32;;;;;;;1.80;1.70;;;;;;;26.62;35.50;102202.75;5053295;28;20064;-77
2022/06/16 11:27:11;;;;;;;2.80;2.28;;;;;;;26.67;34.08;102200.66;5052407;28;20544;-77
2022/06/16 11:29:37;;;;;;;3.85;2.15;;;;;;;26.64;34.02;102200.81;5053575;28;20035;-77
2022/06/16 11:32:07;;;;;;;1.73;1.63;;;;;;;26.67;35.13;102198.84;5052123;28;20021;-77
2022/06/16 11:34:32;;;;;;;2.83;2.10;;;;;;;26.67;34.01;102200.66;5053127;28;20029;-77
2022/06/16 11:37:07;;;;;;;2.37;1.90;;;;;;;26.71;34.80;102204.84;5053121;28;20517;-77
2022/06/16 11:39:41;;;;;;;1.60;1.50;;;;;;;26.88;35.45;102201.16;5066037;28;20032;-77
2022/06/16 11:42:29;;;;;;;2.53;1.83;;;;;;;26.93;33.70;102196.34;5073273;28;20060;-77
2022/06/16 11:45:17;;;;;;;4.63;1.88;;;;;;;27.01;35.05;102203.03;5061508;28;20403;-77
2022/06/16 11:47:55;;;;;;;2.28;1.98;;;;;;;27.04;33.46;102198.34;5072742;28;20040;-77
2022/06/16 11:50:58;;;;;;;1.50;1.40;;;;;;;27.18;34.61;102196.63;5073069;28;20027;-77
2022/06/16 11:53:29;;;;;;;1.65;1.55;;;;;;;27.29;34.50;102200.28;5071971;28;20048;-78
2022/06/16 11:56:04;;;;;;;1.98;1.77;;;;;;;27.39;33.79;102200.53;5072273;28;20063;-82
2022/06/16 11:58:47;;;;;;;3.03;2.10;;;;;;;27.32;31.67;102193.03;5072619;28;20028;-79
2022/06/16 12:01:28;;;;;;;2.20;2.00;;;;;;;27.20;32.80;102206.22;5071066;28;20431;-80
2022/06/16 12:04:21;;;;;;;2.25;1.83;;;;;;;27.19;33.85;102206.31;5071746;28;20476;-80
2022/06/16 12:07:19;;;;;;;2.17;1.70;;;;;;;27.32;33.46;102209.88;5055742;28;20040;-76